Eskdale, Utah
Current Conditions -  °F | °C
As of 9:52 PM on Sunday 19 Oct 2014 (Local Time) from KMLF Reporting Station
Broken Clouds Broken Clouds  
Wind Chill: 53°   Ceiling: 12000
Heat Index: 53°   Visibility: 10mi
Dew Point: 32°   Wind: 3mph
Humidity: 45%   Direction: 280°W
Pressure: 30.06"   Gusts: NA
Location:  39.0932°N, 113.543°W
Report Text: KMLF 200352Z AUTO 28003KT 10SM BKN120 12/00 A3006 RMK AO2 SLP146 T01170000 TSNO
Loading
Personal Weather Stations






























Interactive Weather Map
Tropical Storm Tracking
New forecast layout! Learn more

10-Day Weather Forecast

Advertisements
Track Severe Weather on mobile